PUA274 SAAR-SUMU
Flight info
| Callsign | PUA274 |
|---|---|
| Flight time | 0h 45m |
| Altitude | 31000 |
| Route | TINTA2C TINTA DCT GUA UL417 CRR |
| Aircraft | A320/M-SDE3FGHIJ4RWY/LB1 |
Departure
| Time | 2026-04-25 22:08 |
|---|---|
| Airport | Rosario Islas Malvinas International Airport (SAAR) |
Arrival
| Time | 2026-04-25 22:54 |
|---|---|
| Airport | Carrasco General Cesáreo L. Berisso International Airport (SUMU) |
| Time | Latitude | Longitude | Altitude | Speed | Heading |
|---|---|---|---|---|---|
| 2026-04-25 21:11 | -32.91696 | -60.78153 | 96 ft | 0 kts | 110° |
| 2026-04-25 22:00 | -32.91692 | -60.78165 | 96 ft | 2 kts | 110° |
| 2026-04-25 22:01 | -32.91686 | -60.78184 | 96 ft | 2 kts | 110° |
| 2026-04-25 22:01 | -32.91681 | -60.78202 | 96 ft | 2 kts | 118° |
| 2026-04-25 22:01 | -32.91671 | -60.78218 | 96 ft | 2 kts | 153° |
| 2026-04-25 22:01 | -32.91662 | -60.78222 | 96 ft | 0 kts | 170° |
| 2026-04-25 22:04 | -32.91679 | -60.78230 | 96 ft | 4 kts | 216° |
| 2026-04-25 22:04 | -32.91701 | -60.78253 | 96 ft | 4 kts | 220° |
| 2026-04-25 22:05 | -32.91722 | -60.78274 | 96 ft | 4 kts | 220° |
| 2026-04-25 22:05 | -32.91743 | -60.78304 | 96 ft | 5 kts | 241° |
| 2026-04-25 22:05 | -32.91756 | -60.78353 | 96 ft | 6 kts | 255° |
| 2026-04-25 22:05 | -32.91766 | -60.78402 | 96 ft | 6 kts | 257° |
| 2026-04-25 22:06 | -32.91774 | -60.78445 | 96 ft | 5 kts | 257° |
| 2026-04-25 22:06 | -32.91782 | -60.78483 | 96 ft | 4 kts | 257° |
| 2026-04-25 22:06 | -32.91788 | -60.78516 | 96 ft | 4 kts | 257° |
| 2026-04-25 22:06 | -32.91793 | -60.78563 | 95 ft | 7 kts | 272° |
| 2026-04-25 22:07 | -32.91773 | -60.78611 | 96 ft | 8 kts | 313° |
| 2026-04-25 22:07 | -32.91747 | -60.78641 | 95 ft | 7 kts | 312° |
| 2026-04-25 22:07 | -32.91691 | -60.78706 | 95 ft | 14 kts | 327° |
| 2026-04-25 22:07 | -32.91552 | -60.78738 | 97 ft | 27 kts | 8° |
| 2026-04-25 22:08 | -32.91127 | -60.78643 | 99 ft | 97 kts | 12° |
| 2026-04-25 22:08 | -32.90272 | -60.78438 | 110 ft | 149 kts | 13° |
| 2026-04-25 22:08 | -32.89246 | -60.78204 | 695 ft | 151 kts | 12° |
| 2026-04-25 22:08 | -32.88215 | -60.77976 | 1353 ft | 155 kts | 13° |
| 2026-04-25 22:09 | -32.87104 | -60.77724 | 1835 ft | 171 kts | 13° |
| 2026-04-25 22:09 | -32.85901 | -60.77452 | 2267 ft | 182 kts | 12° |
| 2026-04-25 22:09 | -32.84664 | -60.77003 | 2673 ft | 193 kts | 37° |
| 2026-04-25 22:09 | -32.83872 | -60.75726 | 3161 ft | 197 kts | 66° |
| 2026-04-25 22:10 | -32.83260 | -60.74187 | 3588 ft | 216 kts | 66° |
| 2026-04-25 22:10 | -32.82569 | -60.72516 | 4118 ft | 233 kts | 65° |
| 2026-04-25 22:10 | -32.81873 | -60.70735 | 4849 ft | 243 kts | 74° |
| 2026-04-25 22:10 | -32.81703 | -60.68744 | 5681 ft | 247 kts | 98° |
| 2026-04-25 22:11 | -32.82135 | -60.66704 | 6303 ft | 263 kts | 108° |
| 2026-04-25 22:11 | -32.82672 | -60.64553 | 6939 ft | 278 kts | 107° |
| 2026-04-25 22:11 | -32.83226 | -60.62317 | 7758 ft | 285 kts | 107° |
| 2026-04-25 22:11 | -32.83786 | -60.60038 | 8618 ft | 290 kts | 107° |
| 2026-04-25 22:12 | -32.84345 | -60.57746 | 9439 ft | 295 kts | 107° |
| 2026-04-25 22:12 | -32.84921 | -60.55382 | 10206 ft | 302 kts | 107° |
| 2026-04-25 22:12 | -32.85524 | -60.52916 | 10691 ft | 319 kts | 107° |
| 2026-04-25 22:12 | -32.85950 | -60.51179 | 10986 ft | 329 kts | 107° |
| 2026-04-25 22:13 | -32.86816 | -60.47584 | 11528 ft | 352 kts | 106° |
| 2026-04-25 22:13 | -32.87500 | -60.44744 | 12153 ft | 362 kts | 107° |
| 2026-04-25 22:13 | -32.88204 | -60.41837 | 12907 ft | 369 kts | 107° |
| 2026-04-25 22:13 | -32.88910 | -60.38885 | 13616 ft | 372 kts | 106° |
| 2026-04-25 22:14 | -32.89625 | -60.35898 | 14242 ft | 378 kts | 107° |
| 2026-04-25 22:14 | -32.90359 | -60.32868 | 14866 ft | 384 kts | 107° |
| 2026-04-25 22:14 | -32.91105 | -60.29801 | 15468 ft | 389 kts | 107° |
| 2026-04-25 22:14 | -32.91857 | -60.26689 | 16055 ft | 394 kts | 107° |
| 2026-04-25 22:15 | -32.92620 | -60.23531 | 16626 ft | 399 kts | 107° |
| 2026-04-25 22:15 | -32.93384 | -60.20331 | 17198 ft | 405 kts | 105° |
| 2026-04-25 22:15 | -32.93872 | -60.17012 | 17773 ft | 410 kts | 94° |
| 2026-04-25 22:16 | -32.94209 | -60.10150 | 18861 ft | 421 kts | 93° |
| 2026-04-25 22:16 | -32.94388 | -60.06652 | 19411 ft | 426 kts | 93° |
| 2026-04-25 22:16 | -32.94571 | -60.03158 | 19945 ft | 431 kts | 93° |
| 2026-04-25 22:16 | -32.94758 | -59.99574 | 20476 ft | 437 kts | 92° |
| 2026-04-25 22:17 | -32.94944 | -59.95942 | 20972 ft | 442 kts | 92° |
| 2026-04-25 22:17 | -32.95131 | -59.92271 | 21463 ft | 447 kts | 92° |
| 2026-04-25 22:17 | -32.95318 | -59.88557 | 21936 ft | 452 kts | 92° |
| 2026-04-25 22:17 | -32.95503 | -59.84797 | 22423 ft | 457 kts | 92° |
| 2026-04-25 22:18 | -32.95686 | -59.80997 | 22889 ft | 462 kts | 92° |
| 2026-04-25 22:18 | -32.95870 | -59.77152 | 23360 ft | 466 kts | 92° |
| 2026-04-25 22:18 | -32.96056 | -59.73284 | 23809 ft | 471 kts | 92° |
| 2026-04-25 22:18 | -32.96246 | -59.69365 | 24238 ft | 476 kts | 92° |
| 2026-04-25 22:19 | -32.96436 | -59.65415 | 24666 ft | 480 kts | 91° |
| 2026-04-25 22:19 | -32.96628 | -59.61428 | 25082 ft | 484 kts | 91° |
| 2026-04-25 22:19 | -32.96820 | -59.57412 | 25494 ft | 488 kts | 92° |
| 2026-04-25 22:19 | -32.97012 | -59.53359 | 25879 ft | 492 kts | 92° |
| 2026-04-25 22:20 | -32.97203 | -59.49269 | 26263 ft | 496 kts | 91° |
| 2026-04-25 22:20 | -32.97390 | -59.45209 | 26631 ft | 500 kts | 91° |
| 2026-04-25 22:20 | -32.97581 | -59.41056 | 26992 ft | 504 kts | 91° |
| 2026-04-25 22:20 | -32.97771 | -59.36871 | 27337 ft | 508 kts | 91° |
| 2026-04-25 22:21 | -32.97964 | -59.32658 | 27684 ft | 511 kts | 91° |
| 2026-04-25 22:21 | -32.98157 | -59.28415 | 28016 ft | 514 kts | 91° |
| 2026-04-25 22:21 | -32.98347 | -59.24145 | 28327 ft | 518 kts | 91° |
| 2026-04-25 22:21 | -32.98533 | -59.19846 | 28644 ft | 522 kts | 91° |
| 2026-04-25 22:22 | -32.98722 | -59.15517 | 28978 ft | 526 kts | 91° |
| 2026-04-25 22:22 | -32.98914 | -59.11159 | 29315 ft | 529 kts | 91° |
| 2026-04-25 22:22 | -32.99108 | -59.06770 | 29633 ft | 532 kts | 91° |
| 2026-04-25 22:22 | -32.99301 | -59.02356 | 29950 ft | 536 kts | 91° |
| 2026-04-25 22:23 | -32.99489 | -58.97912 | 30235 ft | 539 kts | 91° |
| 2026-04-25 22:23 | -32.99674 | -58.93431 | 30529 ft | 543 kts | 91° |
| 2026-04-25 22:23 | -32.99858 | -58.88985 | 30808 ft | 546 kts | 91° |
| 2026-04-25 22:23 | -33.00047 | -58.84394 | 30948 ft | 549 kts | 91° |
| 2026-04-25 22:24 | -33.00230 | -58.79910 | 30973 ft | 546 kts | 91° |
| 2026-04-25 22:24 | -33.00602 | -58.70842 | 30972 ft | 559 kts | 93° |
| 2026-04-25 22:24 | -33.01191 | -58.66236 | 30969 ft | 566 kts | 105° |
| 2026-04-25 22:25 | -33.02405 | -58.61765 | 30970 ft | 568 kts | 116° |
| 2026-04-25 22:25 | -33.04194 | -58.57592 | 30969 ft | 563 kts | 127° |
| 2026-04-25 22:25 | -33.06488 | -58.53852 | 30972 ft | 554 kts | 137° |
| 2026-04-25 22:26 | -33.11569 | -58.46937 | 30971 ft | 555 kts | 137° |
| 2026-04-25 22:26 | -33.16631 | -58.39978 | 30970 ft | 555 kts | 137° |
| 2026-04-25 22:27 | -33.21682 | -58.32990 | 30976 ft | 556 kts | 137° |
| 2026-04-25 22:27 | -33.26739 | -58.25999 | 30973 ft | 557 kts | 137° |
| 2026-04-25 22:28 | -33.31802 | -58.18986 | 30968 ft | 557 kts | 137° |
| 2026-04-25 22:28 | -33.36863 | -58.11974 | 30972 ft | 557 kts | 137° |
| 2026-04-25 22:29 | -33.41968 | -58.04899 | 30923 ft | 564 kts | 136° |
| 2026-04-25 22:29 | -33.47090 | -57.97769 | 30970 ft | 564 kts | 136° |
| 2026-04-25 22:30 | -33.54722 | -57.87120 | 30954 ft | 565 kts | 136° |
| 2026-04-25 22:30 | -33.59001 | -57.81119 | 30950 ft | 565 kts | 136° |
| 2026-04-25 22:31 | -33.64935 | -57.72769 | 30956 ft | 565 kts | 136° |
| 2026-04-25 22:31 | -33.70031 | -57.65586 | 30962 ft | 565 kts | 136° |
| 2026-04-25 22:32 | -33.75132 | -57.58394 | 30969 ft | 564 kts | 136° |
| 2026-04-25 22:32 | -33.80215 | -57.51209 | 30967 ft | 564 kts | 136° |
| 2026-04-25 22:33 | -33.85251 | -57.44061 | 30948 ft | 546 kts | 136° |
| 2026-04-25 22:33 | -33.86852 | -57.41774 | 30952 ft | 534 kts | 136° |
| 2026-04-25 22:33 | -33.89252 | -57.38352 | 30952 ft | 536 kts | 136° |
| 2026-04-25 22:34 | -33.91638 | -57.34964 | 30804 ft | 524 kts | 136° |
| 2026-04-25 22:34 | -33.93991 | -57.31630 | 30171 ft | 522 kts | 136° |
| 2026-04-25 22:34 | -33.97100 | -57.27238 | 29377 ft | 517 kts | 136° |
| 2026-04-25 22:34 | -33.98670 | -57.25020 | 29052 ft | 513 kts | 136° |
| 2026-04-25 22:35 | -34.00970 | -57.21762 | 28475 ft | 510 kts | 136° |
| 2026-04-25 22:35 | -34.03245 | -57.18526 | 28061 ft | 502 kts | 135° |
| 2026-04-25 22:35 | -34.05481 | -57.15331 | 27598 ft | 496 kts | 135° |
| 2026-04-25 22:35 | -34.07694 | -57.12168 | 27066 ft | 491 kts | 135° |
| 2026-04-25 22:36 | -34.09881 | -57.09036 | 26480 ft | 487 kts | 135° |
| 2026-04-25 22:36 | -34.12081 | -57.05895 | 25665 ft | 490 kts | 135° |
| 2026-04-25 22:36 | -34.14243 | -57.02807 | 25096 ft | 486 kts | 134° |
| 2026-04-25 22:36 | -34.16411 | -56.99701 | 24566 ft | 480 kts | 134° |
| 2026-04-25 22:37 | -34.18548 | -56.96635 | 23970 ft | 476 kts | 134° |
| 2026-04-25 22:37 | -34.20678 | -56.93584 | 23326 ft | 474 kts | 134° |
| 2026-04-25 22:37 | -34.22794 | -56.90555 | 22780 ft | 469 kts | 134° |
| 2026-04-25 22:37 | -34.24881 | -56.87561 | 22263 ft | 463 kts | 134° |
| 2026-04-25 22:38 | -34.26949 | -56.84588 | 21623 ft | 461 kts | 133° |
| 2026-04-25 22:38 | -34.29003 | -56.81627 | 21049 ft | 457 kts | 133° |
| 2026-04-25 22:38 | -34.31034 | -56.78694 | 20547 ft | 452 kts | 133° |
| 2026-04-25 22:38 | -34.33037 | -56.75801 | 20062 ft | 446 kts | 133° |
| 2026-04-25 22:39 | -34.35020 | -56.72939 | 19588 ft | 441 kts | 133° |
| 2026-04-25 22:39 | -34.36978 | -56.70113 | 19116 ft | 436 kts | 133° |
| 2026-04-25 22:39 | -34.38916 | -56.67312 | 18629 ft | 431 kts | 133° |
| 2026-04-25 22:39 | -34.40830 | -56.64541 | 18148 ft | 426 kts | 132° |
| 2026-04-25 22:40 | -34.42714 | -56.61806 | 17667 ft | 421 kts | 132° |
| 2026-04-25 22:40 | -34.44575 | -56.59097 | 17156 ft | 416 kts | 132° |
| 2026-04-25 22:40 | -34.46394 | -56.56453 | 16602 ft | 412 kts | 132° |
| 2026-04-25 22:40 | -34.48218 | -56.53802 | 16060 ft | 407 kts | 132° |
| 2026-04-25 22:41 | -34.49995 | -56.51188 | 15767 ft | 396 kts | 129° |
| 2026-04-25 22:41 | -34.51404 | -56.48368 | 15515 ft | 386 kts | 116° |
| 2026-04-25 22:41 | -34.52289 | -56.45347 | 15266 ft | 376 kts | 106° |
| 2026-04-25 22:41 | -34.52997 | -56.42337 | 15004 ft | 367 kts | 107° |
| 2026-04-25 22:42 | -34.53698 | -56.39378 | 14596 ft | 363 kts | 107° |
| 2026-04-25 22:42 | -34.54387 | -56.36478 | 14420 ft | 352 kts | 107° |
| 2026-04-25 22:42 | -34.55054 | -56.33666 | 14250 ft | 342 kts | 107° |
| 2026-04-25 22:42 | -34.55697 | -56.30952 | 14029 ft | 327 kts | 107° |
| 2026-04-25 22:43 | -34.56319 | -56.28325 | 13456 ft | 322 kts | 107° |
| 2026-04-25 22:43 | -34.56940 | -56.25710 | 12762 ft | 322 kts | 107° |
| 2026-04-25 22:43 | -34.57557 | -56.23112 | 12147 ft | 319 kts | 107° |
| 2026-04-25 22:43 | -34.58165 | -56.20544 | 11549 ft | 315 kts | 107° |
| 2026-04-25 22:44 | -34.58758 | -56.18025 | 11060 ft | 304 kts | 107° |
| 2026-04-25 22:44 | -34.59323 | -56.15587 | 10202 ft | 299 kts | 107° |
| 2026-04-25 22:44 | -34.59883 | -56.13164 | 9352 ft | 297 kts | 105° |
| 2026-04-25 22:44 | -34.60094 | -56.10711 | 8908 ft | 288 kts | 90° |
| 2026-04-25 22:45 | -34.60029 | -56.08367 | 8748 ft | 269 kts | 88° |
| 2026-04-25 22:45 | -34.59938 | -56.06133 | 8324 ft | 263 kts | 88° |
| 2026-04-25 22:45 | -34.59844 | -56.03913 | 7750 ft | 263 kts | 88° |
| 2026-04-25 22:45 | -34.59751 | -56.01695 | 7152 ft | 263 kts | 88° |
| 2026-04-25 22:46 | -34.59659 | -55.99484 | 6645 ft | 260 kts | 88° |
| 2026-04-25 22:46 | -34.59571 | -55.97340 | 6313 ft | 250 kts | 88° |
| 2026-04-25 22:46 | -34.59490 | -55.95258 | 5864 ft | 247 kts | 88° |
| 2026-04-25 22:46 | -34.59411 | -55.93190 | 5661 ft | 241 kts | 88° |
| 2026-04-25 22:47 | -34.59332 | -55.91196 | 5487 ft | 233 kts | 88° |
| 2026-04-25 22:47 | -34.59256 | -55.89292 | 5341 ft | 224 kts | 88° |
| 2026-04-25 22:47 | -34.59177 | -55.87425 | 5189 ft | 221 kts | 88° |
| 2026-04-25 22:47 | -34.59211 | -55.85574 | 4868 ft | 219 kts | 104° |
| 2026-04-25 22:48 | -34.59884 | -55.83930 | 4507 ft | 225 kts | 134° |
| 2026-04-25 22:48 | -34.61273 | -55.82828 | 4378 ft | 245 kts | 165° |
| 2026-04-25 22:48 | -34.62952 | -55.82775 | 4253 ft | 244 kts | 192° |
| 2026-04-25 22:48 | -34.64617 | -55.83196 | 4118 ft | 244 kts | 192° |
| 2026-04-25 22:49 | -34.66280 | -55.83585 | 3965 ft | 243 kts | 191° |
| 2026-04-25 22:49 | -34.67939 | -55.83956 | 3817 ft | 242 kts | 191° |
| 2026-04-25 22:49 | -34.69568 | -55.84321 | 3674 ft | 234 kts | 191° |
| 2026-04-25 22:49 | -34.71145 | -55.84682 | 3551 ft | 230 kts | 191° |
| 2026-04-25 22:50 | -34.72638 | -55.85327 | 3297 ft | 227 kts | 212° |
| 2026-04-25 22:50 | -34.73780 | -55.86605 | 3033 ft | 222 kts | 232° |
| 2026-04-25 22:50 | -34.74696 | -55.88109 | 2747 ft | 220 kts | 232° |
| 2026-04-25 22:50 | -34.75604 | -55.89598 | 2456 ft | 218 kts | 232° |
| 2026-04-25 22:51 | -34.76490 | -55.91047 | 2172 ft | 208 kts | 232° |
| 2026-04-25 22:51 | -34.77333 | -55.92424 | 1909 ft | 198 kts | 233° |
| 2026-04-25 22:51 | -34.78132 | -55.93730 | 1656 ft | 188 kts | 232° |
| 2026-04-25 22:51 | -34.78886 | -55.94963 | 1410 ft | 175 kts | 232° |
| 2026-04-25 22:52 | -34.79600 | -55.96131 | 1179 ft | 169 kts | 233° |
| 2026-04-25 22:52 | -34.80274 | -55.97235 | 976 ft | 153 kts | 233° |
| 2026-04-25 22:52 | -34.80879 | -55.98225 | 776 ft | 141 kts | 233° |
| 2026-04-25 22:52 | -34.81267 | -55.98858 | 664 ft | 141 kts | 233° |
| 2026-04-25 22:53 | -34.82034 | -56.00123 | 391 ft | 140 kts | 233° |
| 2026-04-25 22:53 | -34.82613 | -56.01071 | 200 ft | 140 kts | 233° |
| 2026-04-25 22:53 | -34.83176 | -56.01998 | 86 ft | 124 kts | 231° |
| 2026-04-25 22:53 | -34.83551 | -56.02613 | 91 ft | 52 kts | 234° |
| 2026-04-25 22:54 | -34.83683 | -56.02824 | 85 ft | 15 kts | 219° |
| 2026-04-25 22:54 | -34.83779 | -56.02850 | 80 ft | 20 kts | 176° |
| 2026-04-25 22:54 | -34.83896 | -56.02832 | 69 ft | 20 kts | 145° |
| 2026-04-25 22:54 | -34.83952 | -56.02793 | 63 ft | 8 kts | 150° |
| 2026-04-25 22:55 | -34.83973 | -56.02722 | 62 ft | 8 kts | 68° |
| 2026-04-25 22:55 | -34.83951 | -56.02644 | 62 ft | 12 kts | 79° |
| 2026-04-25 22:55 | -34.83947 | -56.02546 | 62 ft | 13 kts | 89° |
| 2026-04-25 22:55 | -34.83947 | -56.02422 | 62 ft | 17 kts | 93° |
| 2026-04-25 22:56 | -34.83948 | -56.02295 | 61 ft | 11 kts | 88° |
| 2026-04-25 22:56 | -34.83895 | -56.02244 | 64 ft | 10 kts | 2° |
| 2026-04-25 22:56 | -34.83833 | -56.02240 | 70 ft | 11 kts | 4° |
| 2026-04-25 22:56 | -34.83764 | -56.02209 | 74 ft | 11 kts | 47° |
| 2026-04-25 22:57 | -34.83712 | -56.02125 | 74 ft | 14 kts | 53° |
| 2026-04-25 22:57 | -34.83648 | -56.02019 | 74 ft | 17 kts | 53° |
| 2026-04-25 22:57 | -34.83574 | -56.01898 | 74 ft | 18 kts | 53° |
| 2026-04-25 22:57 | -34.83530 | -56.01825 | 74 ft | 9 kts | 53° |
| 2026-04-25 22:58 | -34.83509 | -56.01774 | 74 ft | 2 kts | 126° |
| 2026-04-25 22:58 | -34.83524 | -56.01765 | 69 ft | 3 kts | 153° |
| 2026-04-25 22:58 | -34.83546 | -56.01751 | 74 ft | 4 kts | 152° |
| 2026-04-25 22:58 | -34.83572 | -56.01730 | 74 ft | 5 kts | 144° |
| 2026-04-25 22:59 | -34.83592 | -56.01712 | 74 ft | 0 kts | 143° |